Time,TemperatureF,DewpointF,PressureIn,WindDirection,WindDirectionDegrees,WindSpeedMPH,WindSpeedGustMPH,Humidity,HourlyPrecipIn,Conditions,Clouds,dailyrainin,SolarRadiationWatts/m^2,SoftwareType,DateUTC
2013-01-12 00:02:00,34.0,34.0,-100.00,NNE,27,0.0,2.0,100,0.02,,,-99.99,1.000000,,2013-01-12 06:02:00,
2013-01-12 00:33:00,34.0,34.0,-100.00,West,275,0.0,2.0,100,0.00,,,-99.99,0.000000,,2013-01-12 06:33:00,
2013-01-12 00:43:00,34.0,34.0,-100.00,West,275,0.0,2.0,100,0.00,,,-99.99,0.000000,,2013-01-12 06:43:00,
2013-01-12 00:53:00,34.0,34.0,-100.00,West,275,0.0,2.0,100,0.00,,,-99.99,0.000000,,2013-01-12 06:53:00,
2013-01-12 01:02:00,34.0,34.0,-100.00,West,275,0.0,2.0,100,0.00,,,-99.99,0.000000,,2013-01-12 07:02:00,
2013-01-12 01:32:00,33.0,33.0,-100.00,SW,225,0.0,0.0,100,0.01,,,-99.99,0.000000,,2013-01-12 07:32:00,
2013-01-12 01:42:00,33.0,33.0,-100.00,SW,225,0.0,0.0,100,0.01,,,-99.99,0.000000,,2013-01-12 07:42:00,
2013-01-12 01:52:00,33.0,33.0,-100.00,SW,225,0.0,0.0,100,0.01,,,-99.99,0.000000,,2013-01-12 07:52:00,
2013-01-12 02:02:00,33.0,33.0,-100.00,SW,225,0.0,0.0,100,0.01,,,-99.99,0.000000,,2013-01-12 08:02:00,
2013-01-12 02:32:00,33.0,33.0,-100.00,WSW,237,3.0,5.0,100,0.00,,,-99.99,0.000000,,2013-01-12 08:32:00,
2013-01-12 02:42:00,33.0,33.0,-100.00,WSW,237,3.0,5.0,100,0.00,,,-99.99,0.000000,,2013-01-12 08:42:00,
2013-01-12 02:53:00,33.0,33.0,-100.00,WSW,237,3.0,5.0,100,0.00,,,-99.99,0.000000,,2013-01-12 08:53:00,
2013-01-12 03:02:00,33.0,33.0,-100.00,WSW,237,3.0,5.0,100,0.00,,,-99.99,0.000000,,2013-01-12 09:02:00,
2013-01-12 03:32:00,33.0,33.0,-100.00,WSW,249,6.0,11.0,100,0.00,,,-99.99,0.000000,,2013-01-12 09:32:00,
2013-01-12 03:42:00,33.0,33.0,-100.00,WSW,249,6.0,11.0,100,0.00,,,-99.99,0.000000,,2013-01-12 09:42:00,
2013-01-12 03:53:00,33.0,33.0,-100.00,WSW,249,6.0,11.0,100,0.00,,,-99.99,0.000000,,2013-01-12 09:53:00,
2013-01-12 04:02:00,33.0,33.0,-100.00,WSW,249,6.0,11.0,100,0.00,,,-99.99,0.000000,,2013-01-12 10:02:00,
2013-01-12 04:32:00,28.0,28.0,-100.00,WNW,299,5.0,16.0,98,0.00,,,-99.99,0.000000,,2013-01-12 10:32:00,
2013-01-12 04:43:00,28.0,28.0,-100.00,WNW,299,5.0,16.0,98,0.00,,,-99.99,0.000000,,2013-01-12 10:43:00,
2013-01-12 04:52:00,28.0,28.0,-100.00,WNW,299,5.0,16.0,98,0.00,,,-99.99,0.000000,,2013-01-12 10:52:00,
2013-01-12 05:02:00,28.0,28.0,-100.00,WNW,299,5.0,16.0,98,0.00,,,-99.99,0.000000,,2013-01-12 11:02:00,
2013-01-12 05:33:00,23.0,20.0,-100.00,WNW,284,6.0,15.0,89,0.00,,,-99.99,0.000000,,2013-01-12 11:33:00,
2013-01-12 05:43:00,23.0,20.0,-100.00,WNW,284,6.0,15.0,89,0.00,,,-99.99,0.000000,,2013-01-12 11:43:00,
2013-01-12 05:53:00,23.0,20.0,-100.00,WNW,284,6.0,15.0,89,0.00,,,-99.99,0.000000,,2013-01-12 11:53:00,
2013-01-12 06:02:00,23.0,20.0,-100.00,WNW,284,6.0,15.0,89,0.00,,,-99.99,0.000000,,2013-01-12 12:02:00,
2013-01-12 06:33:00,18.0,14.0,-100.00,West,281,6.0,15.0,85,0.00,,,-99.99,0.000000,,2013-01-12 12:33:00,
2013-01-12 06:43:00,18.0,14.0,-100.00,West,281,6.0,15.0,85,0.00,,,-99.99,0.000000,,2013-01-12 12:43:00,
2013-01-12 06:53:00,18.0,14.0,-100.00,West,281,6.0,15.0,85,0.00,,,-99.99,0.000000,,2013-01-12 12:53:00,
2013-01-12 07:02:00,18.0,14.0,-100.00,West,281,6.0,15.0,85,0.00,,,-99.99,0.000000,,2013-01-12 13:02:00,
2013-01-12 07:33:00,15.0,9.0,-100.00,West,274,7.0,16.0,78,0.00,,,-99.99,0.000000,,2013-01-12 13:33:00,
2013-01-12 07:43:00,15.0,9.0,-100.00,West,274,7.0,16.0,78,0.00,,,-99.99,0.000000,,2013-01-12 13:43:00,
2013-01-12 07:53:00,15.0,9.0,-100.00,West,274,7.0,16.0,78,0.00,,,-99.99,0.000000,,2013-01-12 13:53:00,
2013-01-12 08:02:00,15.0,9.0,-100.00,West,274,7.0,16.0,78,0.00,,,-99.99,0.000000,,2013-01-12 14:02:00,
2013-01-12 08:33:00,12.0,6.0,-100.00,WNW,285,7.0,18.0,75,0.00,,,-99.99,2.000000,,2013-01-12 14:33:00,
2013-01-12 08:43:00,12.0,6.0,-100.00,WNW,285,7.0,18.0,75,0.00,,,-99.99,2.000000,,2013-01-12 14:43:00,
2013-01-12 08:53:00,12.0,6.0,-100.00,WNW,285,7.0,18.0,75,0.00,,,-99.99,2.000000,,2013-01-12 14:53:00,
2013-01-12 09:03:00,12.0,6.0,-100.00,WNW,285,7.0,18.0,75,0.00,,,-99.99,2.000000,,2013-01-12 15:03:00,
2013-01-12 09:33:00,12.0,4.0,-100.00,WNW,287,6.0,15.0,71,0.00,,,-99.99,27.000000,,2013-01-12 15:33:00,
2013-01-12 09:43:00,12.0,4.0,-100.00,WNW,287,6.0,15.0,71,0.00,,,-99.99,27.000000,,2013-01-12 15:43:00,
2013-01-12 09:53:00,12.0,4.0,-100.00,WNW,287,6.0,15.0,71,0.00,,,-99.99,27.000000,,2013-01-12 15:53:00,
2013-01-12 10:03:00,12.0,4.0,-100.00,WNW,287,6.0,15.0,71,0.00,,,-99.99,27.000000,,2013-01-12 16:03:00,
2013-01-12 10:33:00,12.0,3.0,-100.00,NW,305,5.0,18.0,66,0.00,,,-99.99,102.000000,,2013-01-12 16:33:00,
2013-01-12 10:43:00,12.0,3.0,-100.00,NW,305,5.0,18.0,66,0.00,,,-99.99,102.000000,,2013-01-12 16:43:00,
2013-01-12 10:53:00,12.0,3.0,-100.00,NW,305,5.0,18.0,66,0.00,,,-99.99,102.000000,,2013-01-12 16:53:00,
2013-01-12 11:02:00,12.0,3.0,-100.00,NW,305,5.0,18.0,66,0.00,,,-99.99,102.000000,,2013-01-12 17:02:00,
2013-01-12 11:33:00,15.0,2.0,-100.00,WNW,296,6.0,16.0,56,0.00,,,-99.99,290.000000,,2013-01-12 17:33:00,
2013-01-12 11:43:00,15.0,2.0,-100.00,WNW,296,6.0,16.0,56,0.00,,,-99.99,290.000000,,2013-01-12 17:43:00,
2013-01-12 11:53:00,15.0,2.0,-100.00,WNW,296,6.0,16.0,56,0.00,,,-99.99,290.000000,,2013-01-12 17:53:00,
2013-01-12 12:03:00,15.0,2.0,-100.00,WNW,296,6.0,16.0,56,0.00,,,-99.99,290.000000,,2013-01-12 18:03:00,
2013-01-12 12:33:00,13.0,1.0,-100.00,West,278,7.0,20.0,57,0.00,,,0.08,237.000000,,2013-01-12 18:33:00,
2013-01-12 12:43:00,13.0,1.0,-100.00,West,278,7.0,20.0,57,0.00,,,0.08,237.000000,,2013-01-12 18:43:00,
2013-01-12 12:53:00,13.0,1.0,-100.00,West,278,7.0,20.0,57,0.00,,,0.08,237.000000,,2013-01-12 18:53:00,
2013-01-12 13:03:00,13.0,1.0,-100.00,West,278,7.0,20.0,57,0.00,,,0.08,237.000000,,2013-01-12 19:03:00,
2013-01-12 13:33:00,12.0,3.0,-100.00,West,265,7.0,14.0,65,0.00,,,0.07,191.000000,,2013-01-12 19:33:00,
2013-01-12 13:43:00,12.0,3.0,-100.00,West,265,7.0,14.0,65,0.00,,,0.07,191.000000,,2013-01-12 19:43:00,
2013-01-12 13:53:00,12.0,3.0,-100.00,West,265,7.0,14.0,65,0.00,,,0.07,191.000000,,2013-01-12 19:53:00,
2013-01-12 14:03:00,12.0,3.0,-100.00,West,265,7.0,14.0,65,0.00,,,0.07,191.000000,,2013-01-12 20:03:00,
2013-01-12 14:33:00,12.0,3.0,-100.00,West,275,6.0,14.0,65,0.00,,,0.07,172.000000,,2013-01-12 20:33:00,
2013-01-12 14:43:00,12.0,3.0,-100.00,West,275,6.0,14.0,65,0.00,,,0.07,172.000000,,2013-01-12 20:43:00,
2013-01-12 14:53:00,12.0,3.0,-100.00,West,275,6.0,14.0,65,0.00,,,0.07,172.000000,,2013-01-12 20:53:00,
2013-01-12 15:03:00,12.0,3.0,-100.00,West,275,6.0,14.0,65,0.00,,,0.07,172.000000,,2013-01-12 21:03:00,
2013-01-12 15:33:00,11.0,2.0,-100.00,WNW,286,5.0,15.0,66,0.00,,,-99.99,133.000000,,2013-01-12 21:33:00,
2013-01-12 15:43:00,11.0,2.0,-100.00,WNW,286,5.0,15.0,66,0.00,,,-99.99,133.000000,,2013-01-12 21:43:00,
2013-01-12 15:53:00,11.0,2.0,-100.00,WNW,286,5.0,15.0,66,0.00,,,-99.99,133.000000,,2013-01-12 21:53:00,
2013-01-12 16:03:00,11.0,2.0,-100.00,WNW,286,5.0,15.0,66,0.00,,,-99.99,133.000000,,2013-01-12 22:03:00,
2013-01-12 16:33:00,10.0,1.0,-100.00,WNW,299,4.0,11.0,67,0.00,,,0.07,68.000000,,2013-01-12 22:33:00,
2013-01-12 16:43:00,10.0,1.0,-100.00,WNW,299,4.0,11.0,67,0.00,,,0.07,68.000000,,2013-01-12 22:43:00,
2013-01-12 16:53:00,10.0,1.0,-100.00,WNW,299,4.0,11.0,67,0.00,,,0.07,68.000000,,2013-01-12 22:53:00,
2013-01-12 17:03:00,10.0,1.0,-100.00,WNW,299,4.0,11.0,67,0.00,,,0.07,68.000000,,2013-01-12 23:03:00,
2013-01-12 17:33:00,8.0,0.0,-100.00,NW,325,3.0,11.0,70,0.00,,,0.07,11.000000,,2013-01-12 23:33:00,
2013-01-12 17:43:00,8.0,0.0,-100.00,NW,325,3.0,11.0,70,0.00,,,0.07,11.000000,,2013-01-12 23:43:00,
2013-01-12 17:53:00,8.0,0.0,-100.00,NW,325,3.0,11.0,70,0.00,,,0.07,11.000000,,2013-01-12 23:53:00,
2013-01-12 18:03:00,8.0,0.0,-100.00,NW,325,3.0,11.0,70,0.00,,,0.07,11.000000,,2013-01-13 00:03:00,
2013-01-12 18:33:00,8.0,3.0,-100.00,NW,310,3.0,9.0,78,0.00,,,0.07,0.000000,,2013-01-13 00:33:00,
2013-01-12 18:43:00,8.0,3.0,-100.00,NW,310,3.0,9.0,78,0.00,,,0.07,0.000000,,2013-01-13 00:43:00,
2013-01-12 18:53:00,8.0,3.0,-100.00,NW,310,3.0,9.0,78,0.00,,,0.07,0.000000,,2013-01-13 00:53:00,
2013-01-12 19:02:00,8.0,3.0,-100.00,NW,310,3.0,9.0,78,0.00,,,0.07,0.000000,,2013-01-13 01:02:00,
2013-01-12 19:33:00,6.0,0.0,-100.00,NW,305,3.0,12.0,75,0.00,,,0.06,1.000000,,2013-01-13 01:33:00,
2013-01-12 19:43:00,6.0,0.0,-100.00,NW,305,3.0,12.0,75,0.00,,,0.06,1.000000,,2013-01-13 01:43:00,
2013-01-12 19:53:00,6.0,0.0,-100.00,NW,305,3.0,12.0,75,0.00,,,0.06,1.000000,,2013-01-13 01:53:00,
2013-01-12 20:02:00,6.0,0.0,-100.00,NW,305,3.0,12.0,75,0.00,,,0.06,1.000000,,2013-01-13 02:02:00,
2013-01-12 20:33:00,5.0,-1.0,-100.00,WNW,289,3.0,9.0,75,0.00,,,0.06,0.000000,,2013-01-13 02:33:00,
2013-01-12 20:43:00,5.0,-1.0,-100.00,WNW,289,3.0,9.0,75,0.00,,,0.06,0.000000,,2013-01-13 02:43:00,
2013-01-12 20:53:00,5.0,-1.0,-100.00,WNW,289,3.0,9.0,75,0.00,,,0.06,0.000000,,2013-01-13 02:53:00,
2013-01-12 21:02:00,5.0,-1.0,-100.00,WNW,289,3.0,9.0,75,0.00,,,0.06,0.000000,,2013-01-13 03:02:00,
2013-01-12 21:33:00,4.0,-2.0,-100.00,West,279,4.0,11.0,75,0.00,,,0.05,1.000000,,2013-01-13 03:33:00,
2013-01-12 21:43:00,4.0,-2.0,-100.00,West,279,4.0,11.0,75,0.00,,,0.05,1.000000,,2013-01-13 03:43:00,
2013-01-12 21:53:00,4.0,-2.0,-100.00,West,279,4.0,11.0,75,0.00,,,0.05,1.000000,,2013-01-13 03:53:00,
2013-01-12 22:02:00,4.0,-2.0,-100.00,West,279,4.0,11.0,75,0.00,,,0.05,1.000000,,2013-01-13 04:02:00,
2013-01-12 22:33:00,3.0,-3.0,-100.00,WNW,303,3.0,8.0,77,0.00,,,0.03,0.000000,,2013-01-13 04:33:00,
2013-01-12 22:43:00,3.0,-3.0,-100.00,WNW,303,3.0,8.0,77,0.00,,,0.03,0.000000,,2013-01-13 04:43:00,
2013-01-12 22:53:00,3.0,-3.0,-100.00,WNW,303,3.0,8.0,77,0.00,,,0.03,0.000000,,2013-01-13 04:53:00,
2013-01-12 23:03:00,3.0,-3.0,-100.00,WNW,303,3.0,8.0,77,0.00,,,0.03,0.000000,,2013-01-13 05:03:00,
2013-01-12 23:33:00,3.0,-3.0,-100.00,WNW,296,4.0,9.0,75,0.00,,,0.01,0.000000,,2013-01-13 05:33:00,
2013-01-12 23:42:00,3.0,-3.0,-100.00,WNW,296,4.0,9.0,75,0.00,,,0.01,0.000000,,2013-01-13 05:42:00,
2013-01-12 23:53:00,3.0,-3.0,-100.00,WNW,296,4.0,9.0,75,0.00,,,0.01,0.000000,,2013-01-13 05:53:00,